-> Other stations

1455

Speed(max): 11.3(15.1)knots
Direction:354° ( N)
Temperature: 25.5°C
Arrived: 2026-09-06 05:53:29 CEST

Past data:
hh:mmknots
Dir (°)
°C
05:51 11.3 16.7 N(349) 25.6
05:49 13 17.8 NNE(12) 25.6
05:47 10.3 14.6 N(357) 25.6
05:45 13.5 18.4 N(8) 25.7
05:43 11.9 15.1 N(8) 25.6
05:41 10.8 14 N(7) 25.6
05:39 13 17.8 N(6) 25.6
05:37 14.6 17.8 N(5) 25.7
05:35 12.4 17.3 NNE(12) 25.7
05:33 15.7 18.4 N(11) 25.7
05:31 14.6 17.8 NNE(20) 25.8
05:29 14.6 17.8 N(5) 25.7
05:27 13 16.7 NNE(16) 25.7
05:25 14.6 18.4 NNE(13) 25.8
15 min. averages:
hh:mmknots
Dir (°)
°C
05:45 13.5 18.4 N(10) 25.7
05:30 14.6 18.9 NNE(14) 25.8
05:15 14 20 NNE(12) 25.9
05:00 13.5 20 NNE(14) 25.9
04:45 13.5 18.9 NNE(14) 26.0
04:30 12.4 18.4 NNE(16) 26.1
04:15 11.9 16.7 NNE(17) 26.3
04:00 10.8 15.7 NNE(17) 26.3
03:45 10.8 14.6 N(10) 26.4
03:30 10.8 15.7 NNE(13) 26.5
03:15 10.3 13.5 NNE(17) 26.6
03:00 10.3 14.6 NNE(19) 26.5
02:45 7.6 10.8 N(8) 26.2
02:30 7 11.9 N(1) 26.1
02:15 4.3 8.6 N(354) 25.8
Stations at HR:
1455
-> Other regions

Desktop view
Data provided by Holfuy.
© Holfuy Weather 2026